Luling, Louisiana
Current Conditions -  °F | °C
As of 1:53 AM on Thursday 25 Dec 2014 (Local Time) from KMSY Reporting Station
Clear Clear  
Wind Chill: 35°   Ceiling: Unl
Heat Index: 40°   Visibility: 10mi
Dew Point: 34°   Wind: 7mph
Humidity: 79%   Direction: 290°WNW
Pressure: 30.16"   Gusts: NA
Location:  29.93°N, 90.37°W
Report Text: KMSY 250753Z 29006KT 10SM CLR 04/01 A3016 RMK AO2 SLP215 T00440011
Loading
Personal Weather Stations






























Interactive Weather Map New forecast layout! Learn more

10-Day Weather Forecast

Advertisements
Track Severe Weather on mobile